Time;durP1;ratioP1;P1;durP2;ratioP2;P2;SDS_P1;SDS_P2;PMS_P1;PMS_P2;Temp;Humidity;BMP_temperature;BMP_pressure;BME280_temperature;BME280_humidity;BME280_pressure;Samples;Min_cycle;Max_cycle;Signal;HPM_P1;HPM_P2
2022/07/12 00:00:01;;;;;;;;;;;;;;;26.30;50.68;99842.72;6218474;23;19912;-83
2022/07/12 00:02:26;;;;;;;;;;;;;;;26.29;51.33;99848.34;6215550;23;19999;-82
2022/07/12 00:04:52;;;;;;;;;;;;;;;26.25;52.80;99839.91;6216727;23;19916;-83
2022/07/12 00:07:18;;;;;;;;;;;;;;;26.23;52.87;99846.56;6217914;23;19934;-83
2022/07/12 00:09:43;;;;;;;;;;;;;;;26.22;52.60;99842.22;6219144;23;19912;-83
2022/07/12 00:12:09;;;;;;;;;;;;;;;26.19;52.93;99846.22;6219564;23;19919;-84
2022/07/12 00:14:34;;;;;;;;;;;;;;;26.15;53.51;99842.38;6214701;23;19908;-83
2022/07/12 00:16:59;;;;;;;;;;;;;;;26.16;54.04;99840.44;6214962;23;19911;-82
2022/07/12 00:19:25;;;;;;;;;;;;;;;26.15;53.78;99845.06;6214465;23;19912;-83
2022/07/12 00:21:50;;;;;;;;;;;;;;;26.15;53.83;99841.53;6214290;23;19946;-83
2022/07/12 00:24:16;;;;;;;;;;;;;;;26.15;52.99;99838.84;6214330;23;19911;-81
2022/07/12 00:26:41;;;;;;;;;;;;;;;26.12;53.49;99840.13;6213892;23;19915;-81
2022/07/12 00:29:06;;;;;;;;;;;;;;;26.10;53.38;99842.22;6214481;23;19912;-83
2022/07/12 00:31:32;;;;;;;;;;;;;;;26.05;54.52;99836.72;6215441;23;19916;-84
2022/07/12 00:33:57;;;;;;;;;;;;;;;26.03;55.28;99831.56;6217956;23;19908;-82
2022/07/12 00:36:23;;;;;;;;;;;;;;;26.03;55.56;99838.84;6229820;23;19959;-83
2022/07/12 00:38:48;;;;;;;;;;;;;;;26.04;55.10;99843.16;6229508;23;19916;-83
2022/07/12 00:41:14;;;;;;;;;;;;;;;26.03;54.88;99839.66;6228512;23;19955;-83
2022/07/12 00:43:39;;;;;;;;;;;;;;;25.99;55.76;99846.59;6228639;23;19919;-83
2022/07/12 00:46:05;;;;;;;;;;;;;;;25.96;56.30;99840.84;6228392;23;19939;-82
2022/07/12 00:48:33;;;;;;;;;;;;;;;25.93;55.63;99846.72;6229989;23;19912;-83
2022/07/12 00:50:59;;;;;;;;;;;;;;;25.90;55.65;99842.63;6232572;23;19912;-82
2022/07/12 00:53:25;;;;;;;;;;;;;;;25.85;55.79;99831.69;6227903;23;19912;-80
2022/07/12 00:55:57;;;;;;;;;;;;;;;25.84;55.80;99837.31;6225396;23;19934;-80
2022/07/12 00:58:23;;;;;;;;;;;;;;;25.79;56.54;99834.50;6225710;23;19916;-82
2022/07/12 01:00:48;;;;;;;;;;;;;;;25.76;56.34;99834.94;6226705;23;19908;-82
2022/07/12 01:03:14;;;;;;;;;;;;;;;25.75;57.51;99838.72;6222777;23;19912;-82
2022/07/12 01:05:40;;;;;;;;;;;;;;;25.76;57.24;99829.53;6224382;23;19931;-83
2022/07/12 01:08:06;;;;;;;;;;;;;;;25.76;59.00;99827.66;6221331;23;19915;-81
2022/07/12 01:10:32;;;;;;;;;;;;;;;25.75;59.16;99827.91;6222432;23;19912;-81
2022/07/12 01:12:58;;;;;;;;;;;;;;;25.77;58.67;99828.50;6224965;23;19927;-82
2022/07/12 01:15:25;;;;;;;;;;;;;;;25.78;58.28;99832.84;6226336;23;19912;-81
2022/07/12 01:17:50;;;;;;;;;;;;;;;25.77;57.95;99833.91;6226444;23;20241;-81
2022/07/12 01:20:16;;;;;;;;;;;;;;;25.76;58.72;99837.66;6200599;23;20305;-82
2022/07/12 01:22:50;;;;;;;;;;;;;;;25.72;58.00;99844.59;6222875;23;19997;-83
2022/07/12 01:25:15;;;;;;;;;;;;;;;25.67;59.03;99854.25;6229451;23;19912;-83
2022/07/12 01:27:40;;;;;;;;;;;;;;;25.58;58.89;99854.78;6231735;23;19939;-83
2022/07/12 01:30:06;;;;;;;;;;;;;;;25.50;58.97;99849.72;6233412;23;19912;-84
2022/07/12 01:32:32;;;;;;;;;;;;;;;25.44;59.61;99859.59;6228911;23;19939;-83
2022/07/12 01:34:57;;;;;;;;;;;;;;;25.37;60.09;99863.44;6199197;23;20254;-82
2022/07/12 01:37:23;;;;;;;;;;;;;;;25.34;60.67;99859.28;6226072;23;19916;-84
2022/07/12 01:39:50;;;;;;;;;;;;;;;25.31;61.35;99865.19;6225295;23;19928;-85
2022/07/12 01:42:15;;;;;;;;;;;;;;;25.27;59.45;99864.00;6222467;23;19916;-83
2022/07/12 01:44:41;;;;;;;;;;;;;;;25.24;60.32;99881.47;6222897;23;20071;-81
2022/07/12 01:47:06;;;;;;;;;;;;;;;25.20;59.40;99884.88;6246819;23;19934;-81
2022/07/12 01:49:32;;;;;;;;;;;;;;;25.18;61.08;99885.09;6252378;23;19915;-81
2022/07/12 01:51:58;;;;;;;;;;;;;;;25.17;60.41;99882.63;6251145;23;19931;-81
2022/07/12 01:54:26;;;;;;;;;;;;;;;25.12;61.21;99882.50;6251441;23;19911;-82
2022/07/12 01:56:52;;;;;;;;;;;;;;;25.12;59.84;99887.88;6251350;23;19912;-83
2022/07/12 01:59:17;;;;;;;;;;;;;;;25.12;59.27;99890.59;6251135;23;19930;-82
2022/07/12 02:01:43;;;;;;;;;;;;;;;25.11;61.27;99886.22;6251469;23;19908;-84
2022/07/12 02:04:09;;;;;;;;;;;;;;;25.12;58.71;99882.50;6250870;23;19941;-84
2022/07/12 02:06:35;;;;;;;;;;;;;;;25.09;57.83;99899.16;6252026;23;19919;-83
2022/07/12 02:09:00;;;;;;;;;;;;;;;25.07;58.20;99893.16;6251103;23;19983;-82
2022/07/12 02:11:26;;;;;;;;;;;;;;;25.05;59.02;99889.84;6251797;23;20037;-84
2022/07/12 02:13:51;;;;;;;;;;;;;;;25.04;59.46;99893.59;6250418;23;19922;-83
2022/07/12 02:16:17;;;;;;;;;;;;;;;25.02;58.71;99887.63;6245609;23;20273;-84
2022/07/12 02:18:43;;;;;;;;;;;;;;;25.01;59.74;99891.38;6244119;23;19919;-84
2022/07/12 02:21:09;;;;;;;;;;;;;;;24.98;58.92;99897.22;6244454;23;19908;-84
2022/07/12 02:23:35;;;;;;;;;;;;;;;24.99;59.66;99890.75;6244324;23;20248;-84
2022/07/12 02:26:00;;;;;;;;;;;;;;;24.98;59.82;99891.81;6243827;23;19907;-83
2022/07/12 02:28:26;;;;;;;;;;;;;;;24.95;60.33;99889.56;6244034;23;19911;-82
2022/07/12 02:30:51;;;;;;;;;;;;;;;24.92;61.20;99890.84;6243688;23;19918;-82
2022/07/12 02:33:17;;;;;;;;;;;;;;;24.90;60.60;99894.84;6243585;23;19914;-84
2022/07/12 02:35:42;;;;;;;;;;;;;;;24.88;60.85;99903.97;6244208;23;19916;-83
2022/07/12 02:38:08;;;;;;;;;;;;;;;24.87;61.94;99891.50;6244695;23;19911;-83
2022/07/12 02:43:17;;;;;;;;;;;;;;;24.85;61.53;99893.63;6244633;23;19918;-83
2022/07/12 02:45:43;;;;;;;;;;;;;;;24.82;62.03;99888.66;6244564;23;19911;-83
2022/07/12 02:48:10;;;;;;;;;;;;;;;24.81;62.17;99896.97;6244231;23;19923;-82
2022/07/12 02:50:36;;;;;;;;;;;;;;;24.77;62.91;99888.53;6243174;23;19919;-83
2022/07/12 02:53:01;;;;;;;;;;;;;;;24.75;64.76;99906.81;6244065;23;19908;-83
2022/07/12 02:55:26;;;;;;;;;;;;;;;24.74;63.14;99913.25;6245135;23;19908;-85
2022/07/12 02:57:52;;;;;;;;;;;;;;;24.72;64.44;99915.38;6245033;23;19922;-84
2022/07/12 03:00:17;;;;;;;;;;;;;;;24.71;63.56;99916.41;6244669;23;19911;-85
2022/07/12 03:02:43;;;;;;;;;;;;;;;24.67;64.30;99907.13;6245425;23;19908;-87
2022/07/12 03:05:08;;;;;;;;;;;;;;;24.63;66.96;99914.00;6244173;23;19912;-87
2022/07/12 03:07:34;;;;;;;;;;;;;;;24.59;65.31;99920.91;6244970;23;19914;-86
2022/07/12 03:09:59;;;;;;;;;;;;;;;24.53;67.55;99916.41;6244323;23;19950;-81
2022/07/12 03:12:25;;;;;;;;;;;;;;;24.52;68.54;99920.16;6244348;23;19908;-87
2022/07/12 03:14:50;;;;;;;;;;;;;;;24.55;69.59;99914.31;6243721;23;19939;-83
2022/07/12 03:17:16;;;;;;;;;;;;;;;24.56;70.39;99921.38;6243463;23;19970;-84
2022/07/12 03:19:41;;;;;;;;;;;;;;;24.55;72.44;99914.31;6243287;23;19912;-87
2022/07/12 03:22:07;;;;;;;;;;;;;;;24.58;73.36;99913.03;6243593;23;19918;-83
2022/07/12 03:24:32;;;;;;;;;;;;;;;24.54;75.37;99917.25;6244345;23;19943;-84
2022/07/12 03:26:58;;;;;;;;;;;;;;;24.53;76.11;99918.28;6243588;23;19912;-84
2022/07/12 03:29:23;;;;;;;;;;;;;;;24.55;77.43;99914.31;6243826;23;19943;-82
2022/07/12 03:31:49;;;;;;;;;;;;;;;24.53;78.18;99924.50;6243758;23;19982;-84
2022/07/12 03:34:14;;;;;;;;;;;;;;;24.46;80.30;99926.44;6243870;23;20320;-85
2022/07/12 03:36:39;;;;;;;;;;;;;;;24.41;81.27;99927.13;6243915;23;19911;-82
2022/07/12 03:39:05;;;;;;;;;;;;;;;24.42;82.32;99936.88;6241972;23;19939;-82
2022/07/12 03:41:30;;;;;;;;;;;;;;;24.37;82.93;99949.38;6242358;23;19961;-84
2022/07/12 03:43:56;;;;;;;;;;;;;;;24.37;83.27;99938.59;6243661;23;19959;-83
2022/07/12 03:46:21;;;;;;;;;;;;;;;24.33;83.97;99948.16;6245338;23;19911;-82
2022/07/12 03:48:46;;;;;;;;;;;;;;;24.32;84.34;99941.13;6218834;23;19946;-84
2022/07/12 03:51:12;;;;;;;;;;;;;;;24.28;84.77;99953.38;6248404;23;19915;-82
2022/07/12 03:53:37;;;;;;;;;;;;;;;24.27;85.26;99954.47;6249545;23;19943;-81
2022/07/12 03:56:03;;;;;;;;;;;;;;;24.13;85.94;99952.88;6247332;23;19911;-81
2022/07/12 03:58:28;;;;;;;;;;;;;;;24.07;86.49;99955.44;6247231;23;20324;-80
2022/07/12 04:00:54;;;;;;;;;;;;;;;23.99;86.95;99953.00;6247636;23;19995;-82
2022/07/12 04:03:19;;;;;;;;;;;;;;;23.88;87.50;99951.00;6252572;23;19934;-83
2022/07/12 04:05:44;;;;;;;;;;;;;;;23.81;88.06;99955.63;6229543;23;19911;-83
2022/07/12 04:08:10;;;;;;;;;;;;;;;23.80;88.10;99956.66;6264705;23;19993;-84
2022/07/12 04:10:35;;;;;;;;;;;;;;;23.85;88.06;99970.34;6239378;23;20339;-84
2022/07/12 04:13:01;;;;;;;;;;;;;;;23.92;88.49;99967.56;6260164;23;20284;-84
2022/07/12 04:15:26;;;;;;;;;;;;;;;23.92;88.76;99973.78;6248249;23;20248;-84
2022/07/12 04:17:51;;;;;;;;;;;;;;;23.92;87.80;99976.47;6245271;23;19912;-83
2022/07/12 04:20:17;;;;;;;;;;;;;;;23.90;87.55;99975.88;6243378;23;19908;-81
2022/07/12 04:22:42;;;;;;;;;;;;;;;23.85;87.69;99978.41;6243713;23;19947;-82
2022/07/12 04:25:08;;;;;;;;;;;;;;;23.85;87.32;99978.41;6243210;23;19911;-83
2022/07/12 04:27:34;;;;;;;;;;;;;;;23.82;87.38;99973.44;6243863;23;19911;-84
2022/07/12 04:29:59;;;;;;;;;;;;;;;23.77;87.56;99970.59;6243393;23;19911;-83
2022/07/12 04:32:25;;;;;;;;;;;;;;;23.72;87.77;99988.47;6243530;23;19908;-83
2022/07/12 04:34:50;;;;;;;;;;;;;;;23.65;87.92;99991.19;6243757;23;19930;-82
2022/07/12 04:37:15;;;;;;;;;;;;;;;23.65;88.27;99988.50;6243788;23;19919;-86
2022/07/12 04:39:41;;;;;;;;;;;;;;;23.63;87.81;99985.19;6217324;23;19921;-85
2022/07/12 04:42:06;;;;;;;;;;;;;;;23.58;87.85;99982.31;6243783;23;19911;-83
2022/07/12 04:44:32;;;;;;;;;;;;;;;23.55;88.50;99988.16;6244443;23;19915;-82
2022/07/12 04:46:57;;;;;;;;;;;;;;;23.50;88.05;99996.06;6243842;23;19954;-83
2022/07/12 04:49:23;;;;;;;;;;;;;;;23.46;87.81;100000.16;6243353;23;19911;-81
2022/07/12 04:51:48;;;;;;;;;;;;;;;23.38;88.27;100008.53;6243657;23;19930;-83
2022/07/12 04:54:14;;;;;;;;;;;;;;;23.40;88.98;100007.25;6216634;23;19941;-84
2022/07/12 04:56:40;;;;;;;;;;;;;;;23.38;88.31;100017.44;6243755;23;19939;-84
2022/07/12 04:59:05;;;;;;;;;;;;;;;23.44;88.91;100018.44;6243920;23;19912;-83
2022/07/12 05:01:32;;;;;;;;;;;;;;;23.40;88.47;100022.56;6245825;23;19911;-83
2022/07/12 05:03:57;;;;;;;;;;;;;;;23.38;88.63;100019.28;6253558;23;19911;-81
2022/07/12 05:06:23;;;;;;;;;;;;;;;23.41;89.31;100018.84;6257634;23;19919;-85
2022/07/12 05:08:48;;;;;;;;;;;;;;;23.44;88.75;100029.22;6254041;23;19911;-83
2022/07/12 05:11:14;;;;;;;;;;;;;;;23.43;89.63;100027.53;6254995;23;19911;-84
2022/07/12 05:13:39;;;;;;;;;;;;;;;23.47;89.36;100024.25;6248107;23;19907;-86
2022/07/12 05:16:08;;;;;;;;;;;;;;;23.48;88.96;100022.38;6243917;23;19911;-80
2022/07/12 05:18:34;;;;;;;;;;;;;;;23.52;89.28;100020.88;6216647;23;20335;-82
2022/07/12 05:20:59;;;;;;;;;;;;;;;23.58;88.84;100026.25;6243150;23;19990;-83
2022/07/12 05:23:25;;;;;;;;;;;;;;;23.66;88.56;100035.94;6243447;23;20228;-80
2022/07/12 05:25:50;;;;;;;;;;;;;;;23.74;88.24;100035.69;6243360;23;19919;-81
2022/07/12 05:28:15;;;;;;;;;;;;;;;23.81;88.73;100036.47;6243506;23;19941;-83
2022/07/12 05:30:42;;;;;;;;;;;;;;;23.86;88.08;100039.34;6218327;23;19955;-89
2022/07/12 05:33:07;;;;;;;;;;;;;;;23.79;88.18;100038.56;6245005;23;20007;-86
2022/07/12 05:35:32;;;;;;;;;;;;;;;23.76;89.10;100044.38;6217760;23;19938;-87
2022/07/12 05:37:58;;;;;;;;;;;;;;;23.79;88.58;100049.34;6244821;23;19957;-86
2022/07/12 05:40:23;;;;;;;;;;;;;;;23.77;88.92;100051.44;6244356;23;19919;-88
2022/07/12 05:42:49;;;;;;;;;;;;;;;23.64;89.47;100043.41;6244799;23;19907;-85
2022/07/12 05:45:14;;;;;;;;;;;;;;;23.70;89.09;100049.81;6244516;23;19947;-89
2022/07/12 05:47:41;;;;;;;;;;;;;;;23.67;89.55;100051.09;6244868;23;20395;-86
2022/07/12 05:50:07;;;;;;;;;;;;;;;23.64;89.05;100052.31;6217155;23;19915;-91
2022/07/12 05:55:18;;;;;;;;;;;;;;;23.40;89.74;100060.28;6244030;23;20339;-90
2022/07/12 05:57:43;;;;;;;;;;;;;;;23.36;90.40;100064.44;6243912;23;19915;-89
2022/07/12 06:00:09;;;;;;;;;;;;;;;23.26;90.45;100067.59;6240915;23;19911;-89
2022/07/12 06:02:34;;;;;;;;;;;;;;;23.28;91.36;100071.72;6240779;23;19942;-86
2022/07/12 06:05:00;;;;;;;;;;;;;;;23.29;90.46;100075.25;6239540;23;19978;-86
2022/07/12 06:07:25;;;;;;;;;;;;;;;23.37;89.87;100072.31;6240768;23;19957;-86
2022/07/12 06:09:52;;;;;;;;;;;;;;;23.44;89.57;100075.00;6240940;23;19911;-85
2022/07/12 06:12:20;;;;;;;;;;;;;;;23.52;89.94;100080.97;6240585;23;19931;-83
2022/07/12 06:14:48;;;;;;;;;;;;;;;23.57;89.41;100093.81;6239718;23;19919;-85
2022/07/12 06:17:13;;;;;;;;;;;;;;;23.50;88.61;100093.03;6213329;23;20072;-83
2022/07/12 06:19:39;;;;;;;;;;;;;;;23.47;89.42;100099.66;6241198;23;19911;-84
2022/07/12 06:22:04;;;;;;;;;;;;;;;23.34;90.02;100088.06;6242452;23;19912;-83
2022/07/12 06:24:29;;;;;;;;;;;;;;;23.41;90.31;100095.09;6241247;23;19922;-82
2022/07/12 06:26:55;;;;;;;;;;;;;;;23.47;89.63;100094.25;6239126;23;19994;-85
2022/07/12 06:29:20;;;;;;;;;;;;;;;23.55;89.35;100101.28;6241429;23;19915;-84
2022/07/12 06:31:46;;;;;;;;;;;;;;;23.62;88.83;100094.81;6215872;23;19964;-84
2022/07/12 06:34:11;;;;;;;;;;;;;;;23.71;88.51;100090.00;6241556;23;19941;-77
2022/07/12 06:36:36;;;;;;;;;;;;;;;23.80;87.86;100099.50;6242182;23;19994;-78
2022/07/12 06:39:02;;;;;;;;;;;;;;;23.93;87.45;100094.03;6241673;23;19919;-76
2022/07/12 06:41:29;;;;;;;;;;;;;;;24.06;87.42;100093.13;6241609;23;19918;-76
2022/07/12 06:43:54;;;;;;;;;;;;;;;24.04;86.16;100090.66;6241115;23;20333;-77
2022/07/12 06:46:20;;;;;;;;;;;;;;;24.08;85.70;100097.28;6241796;23;19919;-75
2022/07/12 06:48:45;;;;;;;;;;;;;;;24.16;86.51;100098.03;6241659;23;19915;-77
2022/07/12 06:51:11;;;;;;;;;;;;;;;24.26;85.23;100093.03;6214329;23;19907;-77
2022/07/12 06:53:36;;;;;;;;;;;;;;;24.30;84.23;100095.06;6243757;23;19939;-76
2022/07/12 06:56:02;;;;;;;;;;;;;;;24.23;84.51;100104.25;6242470;23;19966;-75
2022/07/12 06:58:28;;;;;;;;;;;;;;;24.05;84.49;100095.00;6242018;23;19916;-76
2022/07/12 07:00:53;;;;;;;;;;;;;;;24.03;85.23;100097.06;6241154;23;19911;-77
2022/07/12 07:03:19;;;;;;;;;;;;;;;24.04;85.40;100095.22;6214640;23;19969;-76
2022/07/12 07:05:44;;;;;;;;;;;;;;;24.09;84.82;100098.91;6241574;23;19918;-76
2022/07/12 07:08:10;;;;;;;;;;;;;;;24.17;85.02;100099.69;6213747;23;19911;-77
2022/07/12 07:10:35;;;;;;;;;;;;;;;24.20;84.07;100099.31;6241452;23;19998;-77
2022/07/12 07:13:01;;;;;;;;;;;;;;;24.22;84.22;100108.81;6241457;23;19912;-77
2022/07/12 07:15:26;;;;;;;;;;;;;;;24.26;84.17;100109.22;6215002;23;19908;-75
2022/07/12 07:17:52;;;;;;;;;;;;;;;24.24;83.43;100116.69;6214911;23;19922;-77
2022/07/12 07:20:17;;;;;;;;;;;;;;;24.22;84.11;100107.97;6242611;23;19918;-77
2022/07/12 07:22:43;;;;;;;;;;;;;;;24.29;84.06;100116.88;6242905;23;19907;-78
2022/07/12 07:25:08;;;;;;;;;;;;;;;24.42;84.31;100114.06;6243287;23;20009;-77
2022/07/12 07:27:34;;;;;;;;;;;;;;;24.55;83.43;100115.84;6243812;23;19941;-76
2022/07/12 07:32:44;;;;;;;;;;;;;;;24.57;82.85;100133.47;6243823;23;19987;-76
2022/07/12 07:35:11;;;;;;;;;;;;;;;24.64;81.81;100136.94;6243266;23;19911;-76
2022/07/12 07:37:36;;;;;;;;;;;;;;;24.67;81.78;100131.13;6243357;23;20263;-76
2022/07/12 07:40:02;;;;;;;;;;;;;;;24.75;82.21;100125.41;6242817;23;19962;-75
2022/07/12 07:42:28;;;;;;;;;;;;;;;24.83;82.31;100133.25;6243573;23;19907;-77
2022/07/12 07:44:53;;;;;;;;;;;;;;;24.92;81.52;100131.09;6243420;23;19919;-77
2022/07/12 07:47:19;;;;;;;;;;;;;;;24.88;82.41;100129.88;6244148;23;19974;-78
2022/07/12 07:49:44;;;;;;;;;;;;;;;24.87;80.92;100131.75;6243599;23;19911;-76
2022/07/12 07:52:10;;;;;;;;;;;;;;;24.92;81.17;100133.00;6242850;23;19998;-78
2022/07/12 07:54:35;;;;;;;;;;;;;;;24.92;80.82;100133.81;6243512;23;19918;-76
2022/07/12 07:57:01;;;;;;;;;;;;;;;24.90;81.25;100132.41;6243219;23;19908;-77
2022/07/12 07:59:26;;;;;;;;;;;;;;;24.86;81.55;100132.78;6243096;23;19912;-77
2022/07/12 08:01:54;;;;;;;;;;;;;;;24.93;80.88;100140.03;6243612;23;20018;-78
2022/07/12 08:04:21;;;;;;;;;;;;;;;25.00;81.12;100144.34;6243672;23;20278;-78
2022/07/12 08:06:47;;;;;;;;;;;;;;;25.09;80.15;100142.19;6243374;23;19915;-77
2022/07/12 08:09:12;;;;;;;;;;;;;;;25.17;79.69;100137.31;6242375;23;20025;-75
2022/07/12 08:11:38;;;;;;;;;;;;;;;25.21;80.01;100141.19;6243253;23;19912;-74
2022/07/12 08:14:04;;;;;;;;;;;;;;;25.23;79.52;100131.00;6242850;23;19907;-74
2022/07/12 08:16:30;;;;;;;;;;;;;;;25.31;79.60;100124.50;6243583;23;19912;-74
2022/07/12 08:18:56;;;;;;;;;;;;;;;25.36;79.52;100121.94;6243435;22;19931;-76
2022/07/12 08:21:22;;;;;;;;;;;;;;;25.39;79.18;100126.88;6243451;23;19944;-76
2022/07/12 08:23:48;;;;;;;;;;;;;;;25.42;79.65;100131.84;6242522;23;19961;-77
2022/07/12 08:26:13;;;;;;;;;;;;;;;25.49;78.28;100123.66;6242531;23;19916;-76
2022/07/12 08:28:39;;;;;;;;;;;;;;;25.54;79.26;100119.25;6243436;23;20017;-76
2022/07/12 08:31:04;;;;;;;;;;;;;;;25.53;78.02;100125.69;6241714;23;19950;-75
2022/07/12 08:33:30;;;;;;;;;;;;;;;25.43;77.17;100133.50;6243129;23;19919;-77
2022/07/12 08:35:56;;;;;;;;;;;;;;;25.38;77.77;100136.06;6241412;23;19907;-76
2022/07/12 08:38:21;;;;;;;;;;;;;;;25.44;78.56;100132.47;6242592;23;19916;-77
2022/07/12 08:40:47;;;;;;;;;;;;;;;25.55;77.95;100138.97;6242981;23;20317;-77
2022/07/12 08:43:13;;;;;;;;;;;;;;;25.64;76.58;100130.34;6242673;23;19916;-76
2022/07/12 08:45:40;;;;;;;;;;;;;;;25.75;76.12;100125.22;6243482;23;19911;-75
2022/07/12 08:48:08;;;;;;;;;;;;;;;25.84;74.88;100143.63;6242823;23;19994;-77
2022/07/12 08:50:33;;;;;;;;;;;;;;;25.92;74.16;100137.09;6243827;23;19938;-77
2022/07/12 08:52:59;;;;;;;;;;;;;;;25.96;74.41;100133.69;6242695;23;20356;-77
2022/07/12 08:55:25;;;;;;;;;;;;;;;25.99;75.02;100132.41;6242850;23;19912;-77
2022/07/12 08:57:52;;;;;;;;;;;;;;;26.02;75.02;100127.38;6242892;23;19926;-76
2022/07/12 09:00:17;;;;;;;;;;;;;;;26.00;75.00;100134.06;6243439;23;20495;-77
2022/07/12 09:02:50;;;;;;;;;;;;;;;26.06;75.44;100133.13;6243418;23;19911;-76
2022/07/12 09:05:20;;;;;;;;;;;;;;;26.11;75.03;100122.44;6242715;23;19990;-78
2022/07/12 09:07:46;;;;;;;;;;;;;;;26.19;76.57;100127.56;6242947;23;19915;-76
2022/07/12 09:10:12;;;;;;;;;;;;;;;26.27;74.69;100124.53;6242264;23;19912;-74
2022/07/12 09:12:42;;;;;;;;;;;;;;;26.31;74.36;100131.16;6243015;23;19916;-76
2022/07/12 09:15:15;;;;;;;;;;;;;;;26.35;74.12;100126.91;6243243;23;19913;-77
2022/07/12 09:17:46;;;;;;;;;;;;;;;26.36;73.75;100128.56;6243247;23;20022;-76
2022/07/12 09:20:11;;;;;;;;;;;;;;;26.34;73.21;100124.44;6242447;23;20268;-75
2022/07/12 09:22:37;;;;;;;;;;;;;;;26.36;73.35;100111.50;6243021;23;19915;-77
2022/07/12 09:25:15;;;;;;;;;;;;;;;26.41;72.97;100114.34;6242280;23;19994;-76
2022/07/12 09:27:46;;;;;;;;;;;;;;;26.49;73.80;100117.53;6242945;23;20248;-77
2022/07/12 09:30:13;;;;;;;;;;;;;;;26.54;72.54;100114.13;6214840;23;20374;-78
2022/07/12 09:36:17;;;;;;;;;;;;;;;26.59;71.99;100116.13;6243136;23;20043;-77
2022/07/12 09:38:21;;;;;;;;;;;;;;;26.67;72.52;100118.50;6234744;23;19911;-78
2022/07/12 09:40:48;;;;;;;;;;;;;;;26.72;71.85;100115.91;6242739;23;20352;-78
2022/07/12 09:43:14;;;;;;;;;;;;;;;26.77;71.52;100110.63;6241588;23;19922;-77
2022/07/12 09:45:40;;;;;;;;;;;;;;;26.80;72.41;100108.25;6242421;23;19911;-78
2022/07/12 09:48:08;;;;;;;;;;;;;;;26.82;71.25;100116.16;6242828;23;19962;-78
2022/07/12 09:50:35;;;;;;;;;;;;;;;26.77;71.41;100107.91;6242872;23;19915;-77
2022/07/12 09:53:02;;;;;;;;;;;;;;;26.86;70.95;100106.50;6242423;23;20214;-78
2022/07/12 09:55:29;;;;;;;;;;;;;;;26.89;70.56;100111.47;6242419;23;19915;-77
2022/07/12 09:57:56;;;;;;;;;;;;;;;26.92;70.71;100111.00;6241928;23;20232;-78
2022/07/12 10:00:22;;;;;;;;;;;;;;;26.95;70.37;100110.53;6241849;23;19917;-77
2022/07/12 10:02:50;;;;;;;;;;;;;;;26.97;69.75;100108.44;6242417;23;20085;-78
2022/07/12 10:05:16;;;;;;;;;;;;;;;27.00;69.60;100102.53;6242484;23;20283;-78
2022/07/12 10:07:42;;;;;;;;;;;;;;;27.02;69.94;100105.84;6242698;23;19908;-77
2022/07/12 10:10:10;;;;;;;;;;;;;;;27.01;69.70;100101.47;6242556;23;19912;-78
2022/07/12 10:12:35;;;;;;;;;;;;;;;27.04;69.82;100103.69;6242578;23;19912;-78
2022/07/12 10:15:02;;;;;;;;;;;;;;;27.12;70.81;100103.34;6241367;23;19912;-77
2022/07/12 10:17:29;;;;;;;;;;;;;;;27.20;70.28;100103.00;6242695;23;20202;-78
2022/07/12 10:20:14;;;;;;;;;;;;;;;27.29;70.14;100103.44;6242295;23;19911;-77
2022/07/12 10:22:40;;;;;;;;;;;;;;;27.41;69.99;100092.56;6242822;23;19918;-76
2022/07/12 10:25:25;;;;;;;;;;;;;;;27.47;69.18;100100.56;6243180;23;19983;-78
2022/07/12 10:27:51;;;;;;;;;;;;;;;27.45;68.76;100093.75;6242834;23;19959;-78
2022/07/12 10:30:18;;;;;;;;;;;;;;;27.47;67.63;100097.03;6243194;23;20018;-77
2022/07/12 10:32:44;;;;;;;;;;;;;;;27.33;67.52;100101.09;6243111;23;19915;-77
2022/07/12 10:35:15;;;;;;;;;;;;;;;27.29;68.04;100101.53;6215602;23;19922;-76
2022/07/12 10:37:40;;;;;;;;;;;;;;;27.34;68.60;100086.44;6243469;23;19918;-75
2022/07/12 10:40:16;;;;;;;;;;;;;;;27.41;68.24;100092.56;6243196;23;19907;-75
2022/07/12 10:43:00;;;;;;;;;;;;;;;27.44;66.92;100092.94;6243906;23;19959;-76
2022/07/12 10:45:29;;;;;;;;;;;;;;;27.46;67.75;100089.94;6244034;23;20336;-77
2022/07/12 10:47:55;;;;;;;;;;;;;;;27.53;68.08;100079.84;6243970;23;19998;-77
2022/07/12 10:50:39;;;;;;;;;;;;;;;27.63;67.59;100080.03;6243569;23;19919;-77
2022/07/12 10:53:23;;;;;;;;;;;;;;;27.72;67.28;100078.59;6243883;23;20261;-77
2022/07/12 10:56:07;;;;;;;;;;;;;;;27.82;66.07;100073.34;6244180;23;20316;-76
2022/07/12 10:58:32;;;;;;;;;;;;;;;27.93;66.42;100067.06;6244035;23;19916;-76
2022/07/12 11:00:58;;;;;;;;;;;;;;;28.01;64.64;100065.84;6243708;23;20212;-76
2022/07/12 11:03:29;;;;;;;;;;;;;;;28.03;64.22;100064.53;6217000;23;19914;-75
2022/07/12 11:06:01;;;;;;;;;;;;;;;28.01;63.99;100066.66;6244580;23;19918;-76
2022/07/12 11:08:27;;;;;;;;;;;;;;;27.99;65.06;100057.94;6244332;23;20275;-74
2022/07/12 11:10:56;;;;;;;;;;;;;;;28.03;65.71;100067.25;6243981;23;19920;-76
2022/07/12 11:13:23;;;;;;;;;;;;;;;28.08;63.45;100061.91;6245402;23;20314;-77
2022/07/12 11:15:58;;;;;;;;;;;;;;;28.05;63.98;100056.97;6241645;23;19912;-77
2022/07/12 11:18:30;;;;;;;;;;;;;;;28.16;64.09;100052.56;6214986;23;19916;-77
2022/07/12 11:20:56;;;;;;;;;;;;;;;28.25;63.67;100053.00;6241573;23;19911;-76
2022/07/12 11:23:22;;;;;;;;;;;;;;;28.37;63.51;100045.59;6241589;23;19915;-76
2022/07/12 11:25:48;;;;;;;;;;;;;;;28.47;62.04;100048.47;6241511;23;19912;-76
2022/07/12 11:28:13;;;;;;;;;;;;;;;28.50;61.35;100047.97;6214064;23;20244;-76
2022/07/12 11:30:47;;;;;;;;;;;;;;;28.48;61.85;100044.69;6241127;23;19911;-76
2022/07/12 11:33:12;;;;;;;;;;;;;;;28.54;61.57;100043.69;6240341;23;19915;-77
2022/07/12 11:35:38;;;;;;;;;;;;;;;28.56;61.61;100040.75;6241259;23;19918;-79
2022/07/12 11:38:04;;;;;;;;;;;;;;;28.60;61.94;100037.28;6240842;23;19935;-77
2022/07/12 11:40:30;;;;;;;;;;;;;;;28.67;60.75;100034.38;6241153;23;19938;-78
2022/07/12 11:43:01;;;;;;;;;;;;;;;28.64;60.76;100035.69;6240671;23;19919;-77
2022/07/12 11:45:31;;;;;;;;;;;;;;;28.74;60.79;100027.75;6240851;23;19917;-77
2022/07/12 11:47:58;;;;;;;;;;;;;;;28.83;59.98;100031.66;6240709;23;19911;-77
2022/07/12 11:50:23;;;;;;;;;;;;;;;28.87;59.32;100027.38;6241165;23;19915;-77
2022/07/12 11:52:48;;;;;;;;;;;;;;;28.88;59.79;100028.19;6241541;23;19933;-78
2022/07/12 11:55:14;;;;;;;;;;;;;;;28.94;59.13;100024.47;6241105;23;19958;-77
2022/07/12 11:57:39;;;;;;;;;;;;;;;29.03;59.28;100019.44;6241279;23;19907;-77
2022/07/12 12:00:14;;;;;;;;;;;;;;;29.06;58.50;100013.47;6241281;23;19915;-76
2022/07/12 12:02:40;;;;;;;;;;;;;;;28.99;58.49;100015.56;6241577;23;19952;-76
2022/07/12 12:05:06;;;;;;;;;;;;;;;29.02;59.58;100017.78;6242631;23;19953;-77
2022/07/12 12:07:31;;;;;;;;;;;;;;;29.15;58.20;100011.97;6243846;23;20025;-78
2022/07/12 12:10:01;;;;;;;;;;;;;;;29.31;58.02;100016.50;6216091;23;19934;-78
2022/07/12 12:12:27;;;;;;;;;;;;;;;29.47;57.23;100012.91;6242776;23;19911;-77
2022/07/12 12:14:53;;;;;;;;;;;;;;;29.65;56.24;100018.00;6243124;23;20360;-78
2022/07/12 12:17:18;;;;;;;;;;;;;;;29.79;55.98;100006.72;6243323;23;19918;-77
2022/07/12 12:19:43;;;;;;;;;;;;;;;29.96;55.48;100015.63;6242937;23;19995;-78
2022/07/12 12:22:28;;;;;;;;;;;;;;;30.11;54.20;100010.31;6242635;23;19912;-77
2022/07/12 12:24:57;;;;;;;;;;;;;;;30.29;53.32;100007.19;6243248;23;20301;-77
2022/07/12 12:27:23;;;;;;;;;;;;;;;30.50;52.99;100000.03;6242542;23;20308;-77
2022/07/12 12:29:51;;;;;;;;;;;;;;;30.74;51.91;100003.16;6215856;23;20320;-76
2022/07/12 12:32:17;;;;;;;;;;;;;;;31.00;51.27;99990.47;6241893;23;19993;-77
2022/07/12 12:35:02;;;;;;;;;;;;;;;31.14;49.57;99986.22;6241589;23;19916;-77
2022/07/12 12:37:28;;;;;;;;;;;;;;;31.22;49.46;99986.50;6241917;23;19912;-76
2022/07/12 12:39:53;;;;;;;;;;;;;;;31.09;49.17;99984.28;6241986;23;19914;-77
2022/07/12 12:42:25;;;;;;;;;;;;;;;30.76;49.96;99984.63;6215592;23;19915;-76
2022/07/12 12:44:51;;;;;;;;;;;;;;;30.51;50.91;99977.94;6242107;23;19922;-75
2022/07/12 12:47:32;;;;;;;;;;;;;;;30.34;51.56;99980.00;6209333;23;19916;-78